sensor_id;sensor_type;location;lat;lon;timestamp;pressure;altitude;pressure_sealevel;temperature;humidity
23953;BME280;12163;49.316;6.092;2022-07-23T00:00:59;99458.06;;;22.37;67.31
23953;BME280;12163;49.316;6.092;2022-07-23T00:03:26;99466.66;;;22.36;67.75
23953;BME280;12163;49.316;6.092;2022-07-23T00:05:52;99475.25;;;22.34;68.69
23953;BME280;12163;49.316;6.092;2022-07-23T00:08:19;99472.09;;;22.32;68.96
23953;BME280;12163;49.316;6.092;2022-07-23T00:10:46;99471.66;;;22.30;68.75
23953;BME280;12163;49.316;6.092;2022-07-23T00:13:12;99468.91;;;22.30;69.10
23953;BME280;12163;49.316;6.092;2022-07-23T00:15:39;99463.41;;;22.30;69.38
23953;BME280;12163;49.316;6.092;2022-07-23T00:18:06;99467.41;;;22.33;69.53
23953;BME280;12163;49.316;6.092;2022-07-23T00:20:32;99465.00;;;22.31;69.55
23953;BME280;12163;49.316;6.092;2022-07-23T00:22:59;99474.41;;;22.30;69.31
23953;BME280;12163;49.316;6.092;2022-07-23T00:25:26;99475.56;;;22.29;69.33
23953;BME280;12163;49.316;6.092;2022-07-23T00:27:57;99468.06;;;22.27;68.56
23953;BME280;12163;49.316;6.092;2022-07-23T00:30:24;99466.91;;;22.27;68.19
23953;BME280;12163;49.316;6.092;2022-07-23T00:32:55;99461.75;;;22.26;68.11
23953;BME280;12163;49.316;6.092;2022-07-23T00:35:25;99456.19;;;22.23;67.12
23953;BME280;12163;49.316;6.092;2022-07-23T00:37:53;99453.88;;;22.25;68.10
23953;BME280;12163;49.316;6.092;2022-07-23T00:40:20;99437.00;;;22.26;68.29
23953;BME280;12163;49.316;6.092;2022-07-23T00:42:47;99417.75;;;22.26;68.10
23953;BME280;12163;49.316;6.092;2022-07-23T00:45:14;99413.06;;;22.27;67.77
23953;BME280;12163;49.316;6.092;2022-07-23T00:47:40;99406.75;;;22.26;68.28
23953;BME280;12163;49.316;6.092;2022-07-23T00:50:08;99415.41;;;22.25;67.90
23953;BME280;12163;49.316;6.092;2022-07-23T00:52:36;99424.22;;;22.15;68.47
23953;BME280;12163;49.316;6.092;2022-07-23T00:55:04;99424.09;;;22.08;68.30
23953;BME280;12163;49.316;6.092;2022-07-23T00:57:32;99430.75;;;22.07;67.90
23953;BME280;12163;49.316;6.092;2022-07-23T00:59:59;99432.34;;;22.08;67.96
23953;BME280;12163;49.316;6.092;2022-07-23T01:02:26;99432.41;;;22.11;68.10
23953;BME280;12163;49.316;6.092;2022-07-23T01:04:53;99439.13;;;22.14;67.99
23953;BME280;12163;49.316;6.092;2022-07-23T01:07:20;99434.06;;;22.16;68.54
23953;BME280;12163;49.316;6.092;2022-07-23T01:09:47;99432.97;;;22.20;69.39
23953;BME280;12163;49.316;6.092;2022-07-23T01:12:15;99428.63;;;22.19;69.36
23953;BME280;12163;49.316;6.092;2022-07-23T01:14:41;99423.88;;;22.16;69.30
23953;BME280;12163;49.316;6.092;2022-07-23T01:17:08;99406.53;;;22.12;69.71
23953;BME280;12163;49.316;6.092;2022-07-23T01:19:34;99401.75;;;22.09;70.54
23953;BME280;12163;49.316;6.092;2022-07-23T01:22:02;99402.03;;;22.04;70.59
23953;BME280;12163;49.316;6.092;2022-07-23T01:24:29;99392.84;;;21.97;70.56
23953;BME280;12163;49.316;6.092;2022-07-23T01:26:56;99388.81;;;21.91;71.11
23953;BME280;12163;49.316;6.092;2022-07-23T01:29:23;99391.88;;;21.86;71.51
23953;BME280;12163;49.316;6.092;2022-07-23T01:31:49;99387.81;;;21.80;71.50
23953;BME280;12163;49.316;6.092;2022-07-23T01:34:16;99383.75;;;21.74;71.79
23953;BME280;12163;49.316;6.092;2022-07-23T01:36:43;99389.94;;;21.67;71.38
23953;BME280;12163;49.316;6.092;2022-07-23T01:39:10;99392.59;;;21.64;71.88
23953;BME280;12163;49.316;6.092;2022-07-23T01:41:36;99387.38;;;21.59;72.44
23953;BME280;12163;49.316;6.092;2022-07-23T01:44:03;99392.69;;;21.52;71.92
23953;BME280;12163;49.316;6.092;2022-07-23T01:46:30;99394.94;;;21.46;72.04
23953;BME280;12163;49.316;6.092;2022-07-23T01:48:56;99393.28;;;21.42;72.38
23953;BME280;12163;49.316;6.092;2022-07-23T01:51:24;99403.38;;;21.38;72.44
23953;BME280;12163;49.316;6.092;2022-07-23T01:53:50;99417.84;;;21.35;72.08
23953;BME280;12163;49.316;6.092;2022-07-23T01:56:17;99413.94;;;21.36;72.59
23953;BME280;12163;49.316;6.092;2022-07-23T01:58:45;99426.13;;;21.38;72.86
23953;BME280;12163;49.316;6.092;2022-07-23T02:01:11;99423.47;;;21.42;72.80
23953;BME280;12163;49.316;6.092;2022-07-23T02:03:38;99424.63;;;21.41;72.45
23953;BME280;12163;49.316;6.092;2022-07-23T02:06:05;99423.13;;;21.43;72.82
23953;BME280;12163;49.316;6.092;2022-07-23T02:08:31;99428.69;;;21.47;73.13
23953;BME280;12163;49.316;6.092;2022-07-23T02:10:58;99424.44;;;21.49;73.10
23953;BME280;12163;49.316;6.092;2022-07-23T02:13:25;99413.06;;;21.51;73.26
23953;BME280;12163;49.316;6.092;2022-07-23T02:15:56;99407.56;;;21.51;73.45
23953;BME280;12163;49.316;6.092;2022-07-23T02:18:23;99402.09;;;21.51;73.11
23953;BME280;12163;49.316;6.092;2022-07-23T02:20:49;99396.59;;;21.51;73.14
23953;BME280;12163;49.316;6.092;2022-07-23T02:23:16;99409.88;;;21.49;73.57
23953;BME280;12163;49.316;6.092;2022-07-23T02:25:42;99404.69;;;21.44;73.35
23953;BME280;12163;49.316;6.092;2022-07-23T02:28:09;99392.41;;;21.38;73.87
23953;BME280;12163;49.316;6.092;2022-07-23T02:30:36;99395.88;;;21.35;73.93
23953;BME280;12163;49.316;6.092;2022-07-23T02:33:04;99396.50;;;21.28;73.83
23953;BME280;12163;49.316;6.092;2022-07-23T02:35:30;99386.59;;;21.24;73.91
23953;BME280;12163;49.316;6.092;2022-07-23T02:37:57;99395.22;;;21.22;74.42
23953;BME280;12163;49.316;6.092;2022-07-23T02:40:23;99396.72;;;21.20;74.40
23953;BME280;12163;49.316;6.092;2022-07-23T02:42:50;99392.72;;;21.17;74.40
23953;BME280;12163;49.316;6.092;2022-07-23T02:45:17;99388.75;;;21.15;74.28
23953;BME280;12163;49.316;6.092;2022-07-23T02:47:43;99391.41;;;21.11;74.58
23953;BME280;12163;49.316;6.092;2022-07-23T02:50:10;99388.13;;;21.06;74.37
23953;BME280;12163;49.316;6.092;2022-07-23T02:52:38;99395.06;;;21.00;74.17
23953;BME280;12163;49.316;6.092;2022-07-23T02:55:06;99385.88;;;20.92;74.34
23953;BME280;12163;49.316;6.092;2022-07-23T02:57:33;99384.22;;;20.88;74.64
23953;BME280;12163;49.316;6.092;2022-07-23T02:59:59;99382.97;;;20.85;74.22
23953;BME280;12163;49.316;6.092;2022-07-23T03:02:26;99388.03;;;20.83;74.81
23953;BME280;12163;49.316;6.092;2022-07-23T03:04:52;99391.88;;;20.82;74.73
23953;BME280;12163;49.316;6.092;2022-07-23T03:07:19;99399.31;;;20.82;75.42
23953;BME280;12163;49.316;6.092;2022-07-23T03:09:46;99400.13;;;20.82;75.33
23953;BME280;12163;49.316;6.092;2022-07-23T03:12:13;99407.47;;;20.78;74.97
23953;BME280;12163;49.316;6.092;2022-07-23T03:14:41;99410.56;;;20.77;75.54
23953;BME280;12163;49.316;6.092;2022-07-23T03:17:08;99406.56;;;20.74;75.69
23953;BME280;12163;49.316;6.092;2022-07-23T03:19:35;99408.88;;;20.72;75.68
23953;BME280;12163;49.316;6.092;2022-07-23T03:22:03;99409.56;;;20.69;75.57
23953;BME280;12163;49.316;6.092;2022-07-23T03:24:29;99421.34;;;20.70;75.71
23953;BME280;12163;49.316;6.092;2022-07-23T03:27:15;99410.38;;;20.70;75.75
23953;BME280;12163;49.316;6.092;2022-07-23T03:29:42;99415.06;;;20.69;75.88
23953;BME280;12163;49.316;6.092;2022-07-23T03:32:08;99416.59;;;20.67;75.80
23953;BME280;12163;49.316;6.092;2022-07-23T03:34:35;99421.53;;;20.61;76.23
23953;BME280;12163;49.316;6.092;2022-07-23T03:37:02;99414.78;;;20.59;76.24
23953;BME280;12163;49.316;6.092;2022-07-23T03:39:31;99422.16;;;20.55;76.50
23953;BME280;12163;49.316;6.092;2022-07-23T03:41:58;99431.50;;;20.54;76.69
23953;BME280;12163;49.316;6.092;2022-07-23T03:44:24;99424.72;;;20.48;76.65
23953;BME280;12163;49.316;6.092;2022-07-23T03:46:51;99423.84;;;20.44;76.72
23953;BME280;12163;49.316;6.092;2022-07-23T03:49:18;99430.00;;;20.41;76.82
23953;BME280;12163;49.316;6.092;2022-07-23T03:51:45;99426.03;;;20.39;76.95
23953;BME280;12163;49.316;6.092;2022-07-23T03:54:12;99427.53;;;20.36;77.19
23953;BME280;12163;49.316;6.092;2022-07-23T03:56:39;99442.38;;;20.35;77.08
23953;BME280;12163;49.316;6.092;2022-07-23T03:59:06;99447.84;;;20.35;77.34
23953;BME280;12163;49.316;6.092;2022-07-23T04:01:32;99442.81;;;20.37;77.28
23953;BME280;12163;49.316;6.092;2022-07-23T04:03:59;99447.84;;;20.35;77.41
23953;BME280;12163;49.316;6.092;2022-07-23T04:06:26;99453.34;;;20.35;76.93
23953;BME280;12163;49.316;6.092;2022-07-23T04:08:52;99454.94;;;20.36;77.29
23953;BME280;12163;49.316;6.092;2022-07-23T04:11:19;99449.44;;;20.36;77.49
23953;BME280;12163;49.316;6.092;2022-07-23T04:13:46;99455.03;;;20.40;77.69
23953;BME280;12163;49.316;6.092;2022-07-23T04:16:13;99451.13;;;20.41;77.53
23953;BME280;12163;49.316;6.092;2022-07-23T04:18:39;99455.13;;;20.43;77.69
23953;BME280;12163;49.316;6.092;2022-07-23T04:21:06;99449.66;;;20.43;77.46
23953;BME280;12163;49.316;6.092;2022-07-23T04:23:33;99453.97;;;20.44;77.55
23953;BME280;12163;49.316;6.092;2022-07-23T04:25:59;99456.72;;;20.44;77.66
23953;BME280;12163;49.316;6.092;2022-07-23T04:28:26;99448.94;;;20.46;77.58
23953;BME280;12163;49.316;6.092;2022-07-23T04:30:52;99455.22;;;20.47;77.46
23953;BME280;12163;49.316;6.092;2022-07-23T04:33:19;99465.84;;;20.48;77.53
23953;BME280;12163;49.316;6.092;2022-07-23T04:35:46;99462.38;;;20.51;77.74
23953;BME280;12163;49.316;6.092;2022-07-23T04:38:12;99472.63;;;20.54;77.71
23953;BME280;12163;49.316;6.092;2022-07-23T04:40:39;99475.03;;;20.55;77.59
23953;BME280;12163;49.316;6.092;2022-07-23T04:43:06;99471.94;;;20.57;77.37
23953;BME280;12163;49.316;6.092;2022-07-23T04:45:32;99479.44;;;20.60;77.26
23953;BME280;12163;49.316;6.092;2022-07-23T04:47:59;99481.47;;;20.63;77.22
23953;BME280;12163;49.316;6.092;2022-07-23T04:50:25;99486.28;;;20.66;77.00
23953;BME280;12163;49.316;6.092;2022-07-23T04:52:52;99488.66;;;20.67;76.82
23953;BME280;12163;49.316;6.092;2022-07-23T04:55:18;99484.50;;;20.73;76.74
23953;BME280;12163;49.316;6.092;2022-07-23T04:57:45;99493.94;;;21.03;76.75
23953;BME280;12163;49.316;6.092;2022-07-23T05:00:12;99489.94;;;21.51;75.14
23953;BME280;12163;49.316;6.092;2022-07-23T05:02:39;99497.22;;;21.93;73.30
23953;BME280;12163;49.316;6.092;2022-07-23T05:05:06;99482.81;;;22.19;72.21
23953;BME280;12163;49.316;6.092;2022-07-23T05:07:33;99482.53;;;22.42;70.53
23953;BME280;12163;49.316;6.092;2022-07-23T05:09:59;99478.13;;;22.60;70.42
23953;BME280;12163;49.316;6.092;2022-07-23T05:12:26;99491.84;;;22.79;69.73
23953;BME280;12163;49.316;6.092;2022-07-23T05:14:52;99486.28;;;22.98;68.88
23953;BME280;12163;49.316;6.092;2022-07-23T05:17:19;99479.28;;;23.04;68.32
23953;BME280;12163;49.316;6.092;2022-07-23T05:19:46;99487.88;;;22.99;67.57
23953;BME280;12163;49.316;6.092;2022-07-23T05:22:13;99495.22;;;22.92;67.77
23953;BME280;12163;49.316;6.092;2022-07-23T05:24:39;99490.09;;;22.90;67.86
23953;BME280;12163;49.316;6.092;2022-07-23T05:27:06;99492.22;;;23.00;68.02
23953;BME280;12163;49.316;6.092;2022-07-23T05:29:34;99496.44;;;23.17;66.88
23953;BME280;12163;49.316;6.092;2022-07-23T05:32:01;99495.94;;;23.34;65.79
23953;BME280;12163;49.316;6.092;2022-07-23T05:34:27;99501.28;;;23.49;65.07
23953;BME280;12163;49.316;6.092;2022-07-23T05:36:54;99500.75;;;23.40;63.09
23953;BME280;12163;49.316;6.092;2022-07-23T05:39:20;99500.53;;;23.26;65.24
23953;BME280;12163;49.316;6.092;2022-07-23T05:41:47;99506.53;;;23.09;66.01
23953;BME280;12163;49.316;6.092;2022-07-23T05:44:14;99512.50;;;23.11;66.36
23953;BME280;12163;49.316;6.092;2022-07-23T05:46:40;99510.75;;;23.03;66.62
23953;BME280;12163;49.316;6.092;2022-07-23T05:49:07;99510.94;;;23.14;66.44
23953;BME280;12163;49.316;6.092;2022-07-23T05:51:34;99520.34;;;23.35;66.07
23953;BME280;12163;49.316;6.092;2022-07-23T05:54:00;99526.94;;;23.53;65.27
23953;BME280;12163;49.316;6.092;2022-07-23T05:56:27;99531.16;;;23.73;64.85
23953;BME280;12163;49.316;6.092;2022-07-23T05:58:54;99523.59;;;23.93;64.25
23953;BME280;12163;49.316;6.092;2022-07-23T06:01:20;99526.91;;;24.05;63.58
23953;BME280;12163;49.316;6.092;2022-07-23T06:03:47;99530.50;;;24.09;62.86
23953;BME280;12163;49.316;6.092;2022-07-23T06:06:14;99531.00;;;24.18;62.27
23953;BME280;12163;49.316;6.092;2022-07-23T06:08:40;99531.00;;;24.18;62.13
23953;BME280;12163;49.316;6.092;2022-07-23T06:11:08;99543.03;;;24.32;61.88
23953;BME280;12163;49.316;6.092;2022-07-23T06:13:34;99535.28;;;24.45;61.52
23953;BME280;12163;49.316;6.092;2022-07-23T06:16:01;99536.63;;;24.58;60.75
23953;BME280;12163;49.316;6.092;2022-07-23T06:18:28;99535.16;;;24.64;59.40
23953;BME280;12163;49.316;6.092;2022-07-23T06:20:55;99545.03;;;24.68;59.66
23953;BME280;12163;49.316;6.092;2022-07-23T06:23:26;99549.41;;;24.73;59.16
23953;BME280;12163;49.316;6.092;2022-07-23T06:25:52;99549.78;;;24.68;59.48
23953;BME280;12163;49.316;6.092;2022-07-23T06:28:19;99555.88;;;24.51;60.02
23953;BME280;12163;49.316;6.092;2022-07-23T06:30:46;99554.81;;;24.62;59.93
23953;BME280;12163;49.316;6.092;2022-07-23T06:33:13;99556.16;;;24.75;59.37
23953;BME280;12163;49.316;6.092;2022-07-23T06:35:39;99555.06;;;24.83;58.96
23953;BME280;12163;49.316;6.092;2022-07-23T06:38:06;99558.75;;;24.98;56.93
23953;BME280;12163;49.316;6.092;2022-07-23T06:40:33;99559.91;;;24.97;55.64
23953;BME280;12163;49.316;6.092;2022-07-23T06:43:00;99547.78;;;24.68;56.07
23953;BME280;12163;49.316;6.092;2022-07-23T06:45:27;99545.03;;;24.68;56.52
23953;BME280;12163;49.316;6.092;2022-07-23T06:47:53;99547.41;;;24.70;55.84
23953;BME280;12163;49.316;6.092;2022-07-23T06:50:20;99554.34;;;24.53;55.53
23953;BME280;12163;49.316;6.092;2022-07-23T06:52:47;99550.47;;;24.61;55.27
23953;BME280;12163;49.316;6.092;2022-07-23T06:55:13;99551.69;;;24.64;55.80
23953;BME280;12163;49.316;6.092;2022-07-23T06:57:41;99560.00;;;24.67;55.54
23953;BME280;12163;49.316;6.092;2022-07-23T07:00:08;99555.28;;;24.68;55.20
23953;BME280;12163;49.316;6.092;2022-07-23T07:02:35;99552.13;;;24.66;55.87
23953;BME280;12163;49.316;6.092;2022-07-23T07:05:02;99557.00;;;24.79;55.22
23953;BME280;12163;49.316;6.092;2022-07-23T07:07:32;99557.09;;;24.90;55.02
23953;BME280;12163;49.316;6.092;2022-07-23T07:09:59;99560.69;;;24.94;54.84
23953;BME280;12163;49.316;6.092;2022-07-23T07:12:26;99557.41;;;24.81;54.88
23953;BME280;12163;49.316;6.092;2022-07-23T07:14:52;99562.63;;;24.90;55.00
23953;BME280;12163;49.316;6.092;2022-07-23T07:17:20;99559.50;;;24.95;54.87
23953;BME280;12163;49.316;6.092;2022-07-23T07:19:46;99568.25;;;25.04;54.11
23953;BME280;12163;49.316;6.092;2022-07-23T07:22:13;99563.13;;;25.02;54.04
23953;BME280;12163;49.316;6.092;2022-07-23T07:24:39;99558.47;;;25.10;54.31
23953;BME280;12163;49.316;6.092;2022-07-23T07:27:06;99562.16;;;25.21;53.09
23953;BME280;12163;49.316;6.092;2022-07-23T07:29:33;99563.78;;;25.29;53.26
23953;BME280;12163;49.316;6.092;2022-07-23T07:31:59;99570.25;;;25.47;52.84
23953;BME280;12163;49.316;6.092;2022-07-23T07:34:26;99564.06;;;25.64;52.23
23953;BME280;12163;49.316;6.092;2022-07-23T07:36:52;99558.59;;;25.71;51.97
23953;BME280;12163;49.316;6.092;2022-07-23T07:39:19;99560.25;;;25.79;51.85
23953;BME280;12163;49.316;6.092;2022-07-23T07:41:46;99567.22;;;25.62;51.69
23953;BME280;12163;49.316;6.092;2022-07-23T07:44:12;99563.19;;;25.49;52.53
23953;BME280;12163;49.316;6.092;2022-07-23T07:46:39;99566.72;;;25.50;52.74
23953;BME280;12163;49.316;6.092;2022-07-23T07:49:06;99567.13;;;25.52;52.33
23953;BME280;12163;49.316;6.092;2022-07-23T07:51:32;99573.53;;;25.63;52.34
23953;BME280;12163;49.316;6.092;2022-07-23T07:54:00;99565.00;;;25.82;51.74
23953;BME280;12163;49.316;6.092;2022-07-23T07:56:27;99574.13;;;25.86;50.92
23953;BME280;12163;49.316;6.092;2022-07-23T07:58:54;99574.53;;;25.88;51.14
23953;BME280;12163;49.316;6.092;2022-07-23T08:01:21;99578.47;;;25.87;51.09
23953;BME280;12163;49.316;6.092;2022-07-23T08:03:48;99587.47;;;25.77;51.07
23953;BME280;12163;49.316;6.092;2022-07-23T08:06:14;99586.97;;;25.61;51.05
23953;BME280;12163;49.316;6.092;2022-07-23T08:08:41;99579.00;;;25.52;52.14
23953;BME280;12163;49.316;6.092;2022-07-23T08:11:08;99579.81;;;25.56;51.99
23953;BME280;12163;49.316;6.092;2022-07-23T08:13:34;99578.72;;;25.64;52.02
23953;BME280;12163;49.316;6.092;2022-07-23T08:16:01;99571.31;;;25.79;51.49
23953;BME280;12163;49.316;6.092;2022-07-23T08:18:28;99574.59;;;25.98;51.26
23953;BME280;12163;49.316;6.092;2022-07-23T08:20:55;99576.22;;;26.06;50.50
23953;BME280;12163;49.316;6.092;2022-07-23T08:23:21;99584.97;;;26.15;50.22
23953;BME280;12163;49.316;6.092;2022-07-23T08:25:54;99579.44;;;26.18;50.41
23953;BME280;12163;49.316;6.092;2022-07-23T08:28:23;99573.97;;;26.25;49.99
23953;BME280;12163;49.316;6.092;2022-07-23T08:30:49;99581.13;;;26.40;49.69
23953;BME280;12163;49.316;6.092;2022-07-23T08:33:17;99575.22;;;26.42;49.38
23953;BME280;12163;49.316;6.092;2022-07-23T08:36:00;99569.34;;;26.50;49.70
23953;BME280;12163;49.316;6.092;2022-07-23T08:38:29;99564.66;;;26.65;49.41
23953;BME280;12163;49.316;6.092;2022-07-23T08:40:56;99567.88;;;26.84;48.97
23953;BME280;12163;49.316;6.092;2022-07-23T08:43:27;99572.66;;;27.01;48.41
23953;BME280;12163;49.316;6.092;2022-07-23T08:45:55;99567.91;;;27.05;48.29
23953;BME280;12163;49.316;6.092;2022-07-23T08:48:34;99574.31;;;27.16;47.96
23953;BME280;12163;49.316;6.092;2022-07-23T08:51:06;99567.19;;;27.26;48.23
23953;BME280;12163;49.316;6.092;2022-07-23T08:53:34;99574.69;;;27.29;47.70
23953;BME280;12163;49.316;6.092;2022-07-23T08:56:03;99572.31;;;27.27;47.68
23953;BME280;12163;49.316;6.092;2022-07-23T08:58:30;99571.13;;;27.32;47.80
23953;BME280;12163;49.316;6.092;2022-07-23T09:00:58;99577.47;;;27.39;47.72
23953;BME280;12163;49.316;6.092;2022-07-23T09:03:31;99580.25;;;27.18;46.84
23953;BME280;12163;49.316;6.092;2022-07-23T09:05:59;99586.91;;;26.96;48.32
23953;BME280;12163;49.316;6.092;2022-07-23T09:08:39;99584.53;;;26.91;48.54
23953;BME280;12163;49.316;6.092;2022-07-23T09:11:07;99579.00;;;27.05;48.30
23953;BME280;12163;49.316;6.092;2022-07-23T09:16:11;99579.03;;;27.16;47.89
23953;BME280;12163;49.316;6.092;2022-07-23T09:18:46;99586.13;;;27.06;48.25
23953;BME280;12163;49.316;6.092;2022-07-23T09:24:12;99580.63;;;27.13;47.65
23953;BME280;12163;49.316;6.092;2022-07-23T09:26:43;99588.53;;;27.18;47.45
23953;BME280;12163;49.316;6.092;2022-07-23T09:29:25;99582.22;;;27.21;47.82
23953;BME280;12163;49.316;6.092;2022-07-23T09:36:55;99579.78;;;28.17;44.88
23953;BME280;12163;49.316;6.092;2022-07-23T09:41:53;99592.03;;;28.27;45.42
23953;BME280;12163;49.316;6.092;2022-07-23T09:44:20;99597.97;;;28.36;44.97
23953;BME280;12163;49.316;6.092;2022-07-23T09:46:58;99596.81;;;28.19;44.40
23953;BME280;12163;49.316;6.092;2022-07-23T09:49:25;99598.84;;;28.01;45.11
23953;BME280;12163;49.316;6.092;2022-07-23T09:51:59;99598.44;;;27.96;45.34
23953;BME280;12163;49.316;6.092;2022-07-23T09:56:59;99600.03;;;27.90;44.80
23953;BME280;12163;49.316;6.092;2022-07-23T09:59:33;99613.53;;;27.77;44.49
23953;BME280;12163;49.316;6.092;2022-07-23T10:02:01;99603.22;;;27.71;44.92
23953;BME280;12163;49.316;6.092;2022-07-23T10:04:29;99609.16;;;27.94;43.67
23953;BME280;12163;49.316;6.092;2022-07-23T10:06:58;99606.00;;;27.99;43.61
23953;BME280;12163;49.316;6.092;2022-07-23T10:09:30;99613.13;;;27.82;43.74
23953;BME280;12163;49.316;6.092;2022-07-23T10:12:02;99608.34;;;27.69;44.59
23953;BME280;12163;49.316;6.092;2022-07-23T10:14:33;99604.44;;;27.77;45.14
23953;BME280;12163;49.316;6.092;2022-07-23T10:17:04;99604.41;;;27.91;45.06
23953;BME280;12163;49.316;6.092;2022-07-23T10:19:32;99602.03;;;28.00;44.55
23953;BME280;12163;49.316;6.092;2022-07-23T10:22:01;99602.78;;;28.11;44.60
23953;BME280;12163;49.316;6.092;2022-07-23T10:27:30;99604.31;;;28.47;42.81
23953;BME280;12163;49.316;6.092;2022-07-23T10:30:06;99600.97;;;28.80;41.49
23953;BME280;12163;49.316;6.092;2022-07-23T10:38:25;99597.03;;;28.74;40.86
23953;BME280;12163;49.316;6.092;2022-07-23T10:41:04;99600.97;;;28.80;40.44
23953;BME280;12163;49.316;6.092;2022-07-23T10:43:31;99599.44;;;28.72;40.39
23953;BME280;12163;49.316;6.092;2022-07-23T10:46:21;99598.72;;;28.54;40.70
23953;BME280;12163;49.316;6.092;2022-07-23T10:49:23;99601.06;;;28.62;40.46
23953;BME280;12163;49.316;6.092;2022-07-23T10:54:42;99598.66;;;28.61;40.31
23953;BME280;12163;49.316;6.092;2022-07-23T10:57:10;99600.72;;;28.50;40.39
23953;BME280;12163;49.316;6.092;2022-07-23T11:02:30;99604.69;;;28.49;41.28
23953;BME280;12163;49.316;6.092;2022-07-23T11:05:04;99598.38;;;28.41;41.33
23953;BME280;12163;49.316;6.092;2022-07-23T11:07:31;99600.38;;;28.34;40.94
23953;BME280;12163;49.316;6.092;2022-07-23T11:09:58;99600.38;;;28.27;40.85
23953;BME280;12163;49.316;6.092;2022-07-23T11:15:07;99602.00;;;28.07;42.10
23953;BME280;12163;49.316;6.092;2022-07-23T11:22:46;99593.28;;;28.12;41.91
23953;BME280;12163;49.316;6.092;2022-07-23T11:25:29;99593.22;;;28.29;41.92
23953;BME280;12163;49.316;6.092;2022-07-23T11:28:30;99582.09;;;28.47;41.17
23953;BME280;12163;49.316;6.092;2022-07-23T11:30:57;99592.31;;;28.67;40.90
23953;BME280;12163;49.316;6.092;2022-07-23T11:33:23;99597.84;;;28.71;40.31
23953;BME280;12163;49.316;6.092;2022-07-23T11:36:00;99594.25;;;28.74;40.62
23953;BME280;12163;49.316;6.092;2022-07-23T11:38:30;99589.84;;;28.80;40.68
23953;BME280;12163;49.316;6.092;2022-07-23T11:40:58;99583.91;;;28.78;40.10
23953;BME280;12163;49.316;6.092;2022-07-23T11:43:25;99588.28;;;28.79;40.15
23953;BME280;12163;49.316;6.092;2022-07-23T11:45:56;99593.81;;;28.79;40.60
23953;BME280;12163;49.316;6.092;2022-07-23T11:48:28;99586.31;;;28.76;39.88
23953;BME280;12163;49.316;6.092;2022-07-23T11:50:56;99587.44;;;28.85;39.56
23953;BME280;12163;49.316;6.092;2022-07-23T11:53:25;99591.09;;;28.75;38.21
23953;BME280;12163;49.316;6.092;2022-07-23T11:55:52;99579.91;;;28.93;39.06
23953;BME280;12163;49.316;6.092;2022-07-23T11:58:19;99581.66;;;29.24;39.41
23953;BME280;12163;49.316;6.092;2022-07-23T12:00:46;99579.50;;;29.49;37.95
23953;BME280;12163;49.316;6.092;2022-07-23T12:03:14;99574.28;;;29.58;38.45
23953;BME280;12163;49.316;6.092;2022-07-23T12:05:41;99574.88;;;29.79;38.17
23953;BME280;12163;49.316;6.092;2022-07-23T12:08:09;99573.88;;;29.99;37.59
23953;BME280;12163;49.316;6.092;2022-07-23T12:10:42;99566.06;;;30.24;36.60
23953;BME280;12163;49.316;6.092;2022-07-23T12:13:19;99575.38;;;30.44;35.84
23953;BME280;12163;49.316;6.092;2022-07-23T12:15:49;99571.44;;;30.38;35.21
23953;BME280;12163;49.316;6.092;2022-07-23T12:18:18;99566.53;;;30.53;33.97
23953;BME280;12163;49.316;6.092;2022-07-23T12:20:48;99567.06;;;30.41;35.02
23953;BME280;12163;49.316;6.092;2022-07-23T12:23:17;99567.03;;;30.44;35.00
23953;BME280;12163;49.316;6.092;2022-07-23T12:25:47;99560.78;;;30.33;35.77
23953;BME280;12163;49.316;6.092;2022-07-23T12:28:19;99558.59;;;30.18;35.73
23953;BME280;12163;49.316;6.092;2022-07-23T12:30:48;99559.34;;;30.18;35.18
23953;BME280;12163;49.316;6.092;2022-07-23T12:33:24;99555.50;;;30.42;34.64
23953;BME280;12163;49.316;6.092;2022-07-23T12:35:55;99558.84;;;30.64;33.65
23953;BME280;12163;49.316;6.092;2022-07-23T12:38:25;99550.81;;;30.69;32.87
23953;BME280;12163;49.316;6.092;2022-07-23T12:40:54;99555.09;;;30.74;32.94
23953;BME280;12163;49.316;6.092;2022-07-23T12:48:26;99557.91;;;31.00;32.38
23953;BME280;12163;49.316;6.092;2022-07-23T12:51:07;99561.03;;;31.06;32.82
23953;BME280;12163;49.316;6.092;2022-07-23T12:53:41;99564.81;;;30.92;33.48
23953;BME280;12163;49.316;6.092;2022-07-23T12:56:20;99564.28;;;30.71;34.83
23953;BME280;12163;49.316;6.092;2022-07-23T12:58:52;99567.19;;;30.30;35.52
23953;BME280;12163;49.316;6.092;2022-07-23T13:06:53;99572.13;;;29.25;37.65
23953;BME280;12163;49.316;6.092;2022-07-23T13:09:27;99578.22;;;29.06;38.47
23953;BME280;12163;49.316;6.092;2022-07-23T13:11:59;99577.50;;;28.95;38.85
23953;BME280;12163;49.316;6.092;2022-07-23T13:14:27;99580.16;;;29.12;38.50
23953;BME280;12163;49.316;6.092;2022-07-23T13:16:54;99576.03;;;29.34;37.51
23953;BME280;12163;49.316;6.092;2022-07-23T13:19:22;99571.94;;;29.53;36.80
23953;BME280;12163;49.316;6.092;2022-07-23T13:21:51;99580.97;;;29.63;36.37
23953;BME280;12163;49.316;6.092;2022-07-23T13:24:18;99574.75;;;29.89;35.70
23953;BME280;12163;49.316;6.092;2022-07-23T13:26:45;99560.56;;;30.17;35.70
23953;BME280;12163;49.316;6.092;2022-07-23T13:29:13;99572.91;;;30.50;35.08
23953;BME280;12163;49.316;6.092;2022-07-23T13:31:43;99575.44;;;30.71;34.39
23953;BME280;12163;49.316;6.092;2022-07-23T13:34:11;99571.22;;;30.89;35.07
23953;BME280;12163;49.316;6.092;2022-07-23T13:36:38;99566.94;;;31.11;33.28
23953;BME280;12163;49.316;6.092;2022-07-23T13:39:05;99562.38;;;30.94;32.84
23953;BME280;12163;49.316;6.092;2022-07-23T13:41:35;99577.94;;;30.65;33.27
23953;BME280;12163;49.316;6.092;2022-07-23T13:44:02;99570.25;;;30.39;33.44
23953;BME280;12163;49.316;6.092;2022-07-23T13:46:29;99563.19;;;30.31;33.08
23953;BME280;12163;49.316;6.092;2022-07-23T13:48:56;99575.69;;;30.50;33.42
23953;BME280;12163;49.316;6.092;2022-07-23T13:51:23;99567.38;;;30.80;33.69
23953;BME280;12163;49.316;6.092;2022-07-23T13:53:51;99560.41;;;31.21;33.08